TYA4520 UNKL-UNNT
Flight info
| Callsign | TYA4520 |
|---|---|
| Flight time | N/A |
| Altitude | 32000 |
| Route | APRUS B926 NATIR |
| Aircraft | B738/M-SDE2E3FGHIRWXY/LB1 |
Departure
| Time | 2026-05-01 14:56 |
|---|---|
| Airport | Krasnoyarsk International Airport (UNKL) |
Arrival
| Time | N/A |
|---|---|
| Airport | Novosibirsk Tolmachevo Airport (UNNT) |
| Time | Latitude | Longitude | Altitude | Speed | Heading |
|---|---|---|---|---|---|
| 2026-05-01 13:57 | 56.18111 | 92.47324 | 948 ft | 0 kts | 22° |
| 2026-05-01 14:41 | 56.18116 | 92.47328 | 948 ft | 1 kts | 22° |
| 2026-05-01 14:41 | 56.18137 | 92.47343 | 948 ft | 5 kts | 22° |
| 2026-05-01 14:41 | 56.18162 | 92.47382 | 948 ft | 6 kts | 72° |
| 2026-05-01 14:41 | 56.18153 | 92.47452 | 948 ft | 7 kts | 110° |
| 2026-05-01 14:42 | 56.18145 | 92.47485 | 948 ft | 0 kts | 114° |
| 2026-05-01 14:42 | 56.18137 | 92.47517 | 948 ft | 5 kts | 116° |
| 2026-05-01 14:43 | 56.18112 | 92.47611 | 948 ft | 11 kts | 111° |
| 2026-05-01 14:43 | 56.18087 | 92.47720 | 948 ft | 11 kts | 114° |
| 2026-05-01 14:43 | 56.18063 | 92.47820 | 948 ft | 10 kts | 112° |
| 2026-05-01 14:43 | 56.18044 | 92.47900 | 948 ft | 8 kts | 112° |
| 2026-05-01 14:44 | 56.18024 | 92.47974 | 948 ft | 7 kts | 133° |
| 2026-05-01 14:44 | 56.17951 | 92.47954 | 948 ft | 7 kts | 202° |
| 2026-05-01 14:44 | 56.17903 | 92.47918 | 948 ft | 8 kts | 202° |
| 2026-05-01 14:45 | 56.17861 | 92.47916 | 948 ft | 7 kts | 146° |
| 2026-05-01 14:45 | 56.17823 | 92.48046 | 948 ft | 8 kts | 112° |
| 2026-05-01 14:45 | 56.17794 | 92.48168 | 948 ft | 11 kts | 113° |
| 2026-05-01 14:46 | 56.17777 | 92.48243 | 948 ft | 12 kts | 112° |
| 2026-05-01 14:46 | 56.17704 | 92.48543 | 948 ft | 16 kts | 112° |
| 2026-05-01 14:46 | 56.17657 | 92.48740 | 948 ft | 18 kts | 112° |
| 2026-05-01 14:47 | 56.17616 | 92.48913 | 948 ft | 19 kts | 113° |
| 2026-05-01 14:47 | 56.17573 | 92.49091 | 948 ft | 19 kts | 112° |
| 2026-05-01 14:47 | 56.17529 | 92.49278 | 948 ft | 19 kts | 112° |
| 2026-05-01 14:48 | 56.17446 | 92.49625 | 948 ft | 16 kts | 113° |
| 2026-05-01 14:48 | 56.17403 | 92.49808 | 948 ft | 17 kts | 112° |
| 2026-05-01 14:48 | 56.17320 | 92.50155 | 948 ft | 18 kts | 113° |
| 2026-05-01 14:49 | 56.17239 | 92.50492 | 948 ft | 15 kts | 112° |
| 2026-05-01 14:49 | 56.17162 | 92.50818 | 948 ft | 16 kts | 112° |
| 2026-05-01 14:50 | 56.17092 | 92.51108 | 948 ft | 17 kts | 112° |
| 2026-05-01 14:50 | 56.16987 | 92.51550 | 948 ft | 19 kts | 112° |
| 2026-05-01 14:51 | 56.16938 | 92.51759 | 948 ft | 19 kts | 112° |
| 2026-05-01 14:51 | 56.16830 | 92.52024 | 948 ft | 11 kts | 153° |
| 2026-05-01 14:52 | 56.16701 | 92.52069 | 948 ft | 7 kts | 180° |
| 2026-05-01 14:52 | 56.16658 | 92.52057 | 948 ft | 6 kts | 214° |
| 2026-05-01 14:52 | 56.16656 | 92.52002 | 948 ft | 0 kts | 289° |
| 2026-05-01 14:55 | 56.16657 | 92.51997 | 948 ft | 2 kts | 289° |
| 2026-05-01 14:55 | 56.16713 | 92.51756 | 948 ft | 56 kts | 292° |
| 2026-05-01 14:56 | 56.16907 | 92.50937 | 949 ft | 115 kts | 292° |
| 2026-05-01 14:56 | 56.17211 | 92.49661 | 951 ft | 161 kts | 292° |
| 2026-05-01 14:56 | 56.17594 | 92.48115 | 1385 ft | 165 kts | 294° |
| 2026-05-01 14:56 | 56.18037 | 92.46453 | 2085 ft | 158 kts | 296° |
| 2026-05-01 14:57 | 56.18471 | 92.44902 | 2617 ft | 160 kts | 294° |
| 2026-05-01 14:57 | 56.19238 | 92.41308 | 3136 ft | 196 kts | 292° |
| 2026-05-01 14:57 | 56.19722 | 92.39261 | 3459 ft | 214 kts | 292° |
| 2026-05-01 14:58 | 56.20258 | 92.37015 | 3780 ft | 237 kts | 292° |
| 2026-05-01 14:58 | 56.20843 | 92.34581 | 4408 ft | 248 kts | 292° |
| 2026-05-01 14:58 | 56.21449 | 92.32049 | 4981 ft | 261 kts | 292° |
| 2026-05-01 14:58 | 56.21929 | 92.29492 | 5685 ft | 266 kts | 277° |
| 2026-05-01 14:59 | 56.21782 | 92.26594 | 6452 ft | 269 kts | 248° |
| 2026-05-01 14:59 | 56.20990 | 92.23856 | 7319 ft | 271 kts | 241° |
| 2026-05-01 14:59 | 56.20259 | 92.21098 | 8102 ft | 275 kts | 247° |
| 2026-05-01 14:59 | 56.19672 | 92.18529 | 8805 ft | 278 kts | 248° |
| 2026-05-01 15:00 | 56.18431 | 92.12983 | 9101 ft | 283 kts | 249° |
| 2026-05-01 15:00 | 56.17738 | 92.09840 | 9283 ft | 299 kts | 249° |
| 2026-05-01 15:00 | 56.17091 | 92.06894 | 10359 ft | 290 kts | 249° |
| 2026-05-01 15:01 | 56.16448 | 92.03964 | 11057 ft | 296 kts | 250° |
| 2026-05-01 15:01 | 56.15677 | 92.00446 | 11318 ft | 321 kts | 250° |
| 2026-05-01 15:01 | 56.15035 | 91.97510 | 11531 ft | 340 kts | 250° |
| 2026-05-01 15:01 | 56.14261 | 91.93974 | 11704 ft | 362 kts | 250° |
| 2026-05-01 15:02 | 56.13489 | 91.90460 | 12278 ft | 370 kts | 250° |
| 2026-05-01 15:02 | 56.12964 | 91.88075 | 12707 ft | 374 kts | 250° |
| 2026-05-01 15:02 | 56.11906 | 91.83273 | 13631 ft | 379 kts | 250° |
| 2026-05-01 15:02 | 56.11160 | 91.79890 | 14288 ft | 382 kts | 250° |
| 2026-05-01 15:03 | 56.10394 | 91.76424 | 14944 ft | 385 kts | 251° |
| 2026-05-01 15:03 | 56.09576 | 91.72724 | 15633 ft | 388 kts | 251° |
| 2026-05-01 15:03 | 56.08641 | 91.68513 | 16365 ft | 392 kts | 251° |
| 2026-05-01 15:03 | 56.07645 | 91.64030 | 17119 ft | 396 kts | 251° |
| 2026-05-01 15:04 | 56.06647 | 91.59543 | 17847 ft | 400 kts | 251° |
| 2026-05-01 15:04 | 56.05793 | 91.55713 | 18461 ft | 402 kts | 252° |
| 2026-05-01 15:04 | 56.04763 | 91.51103 | 19141 ft | 406 kts | 252° |
| 2026-05-01 15:04 | 56.03748 | 91.46561 | 19801 ft | 410 kts | 252° |
| 2026-05-01 15:05 | 56.02857 | 91.42566 | 20374 ft | 413 kts | 252° |
| 2026-05-01 15:05 | 56.02026 | 91.38844 | 20849 ft | 416 kts | 252° |
| 2026-05-01 15:05 | 56.01183 | 91.35081 | 21335 ft | 419 kts | 252° |
| 2026-05-01 15:05 | 56.00306 | 91.31194 | 21837 ft | 422 kts | 251° |
| 2026-05-01 15:06 | 55.99422 | 91.27452 | 22254 ft | 427 kts | 251° |
| 2026-05-01 15:06 | 55.98684 | 91.23750 | 22660 ft | 427 kts | 257° |
| 2026-05-01 15:06 | 55.98140 | 91.19786 | 23130 ft | 427 kts | 261° |
| 2026-05-01 15:06 | 55.97652 | 91.15829 | 23538 ft | 430 kts | 261° |
| 2026-05-01 15:07 | 55.97152 | 91.11848 | 23955 ft | 433 kts | 261° |
| 2026-05-01 15:07 | 55.96652 | 91.07808 | 24385 ft | 435 kts | 261° |
| 2026-05-01 15:07 | 55.96148 | 91.03674 | 24817 ft | 437 kts | 261° |
| 2026-05-01 15:07 | 55.95632 | 90.99410 | 25237 ft | 440 kts | 261° |
| 2026-05-01 15:08 | 55.95127 | 90.95232 | 25660 ft | 442 kts | 261° |
| 2026-05-01 15:08 | 55.94613 | 90.90976 | 26020 ft | 445 kts | 262° |
| 2026-05-01 15:08 | 55.94103 | 90.86755 | 26445 ft | 446 kts | 262° |
| 2026-05-01 15:08 | 55.93561 | 90.82270 | 26885 ft | 447 kts | 262° |
| 2026-05-01 15:09 | 55.92993 | 90.77575 | 27251 ft | 450 kts | 262° |
| 2026-05-01 15:09 | 55.92488 | 90.73406 | 27731 ft | 448 kts | 262° |
| 2026-05-01 15:09 | 55.91938 | 90.68890 | 28397 ft | 443 kts | 262° |
| 2026-05-01 15:09 | 55.91436 | 90.64776 | 28850 ft | 442 kts | 262° |
| 2026-05-01 15:10 | 55.90895 | 90.60352 | 29334 ft | 440 kts | 262° |
| 2026-05-01 15:10 | 55.89663 | 90.50296 | 30387 ft | 436 kts | 262° |
| 2026-05-01 15:10 | 55.89169 | 90.46287 | 30804 ft | 434 kts | 262° |
| 2026-05-01 15:11 | 55.88678 | 90.42315 | 31193 ft | 433 kts | 262° |
| 2026-05-01 15:11 | 55.87671 | 90.34184 | 31929 ft | 430 kts | 262° |
| 2026-05-01 15:11 | 55.87157 | 90.30053 | 32073 ft | 434 kts | 262° |
| 2026-05-01 15:12 | 55.86615 | 90.25700 | 32073 ft | 434 kts | 262° |
| 2026-05-01 15:12 | 55.85583 | 90.17483 | 32235 ft | 430 kts | 262° |
| 2026-05-01 15:12 | 55.85092 | 90.13591 | 32720 ft | 425 kts | 262° |
| 2026-05-01 15:13 | 55.83503 | 90.01028 | 33645 ft | 424 kts | 262° |
| 2026-05-01 15:14 | 55.82498 | 89.93156 | 34218 ft | 422 kts | 262° |
| 2026-05-01 15:14 | 55.82019 | 89.89415 | 34426 ft | 423 kts | 261° |
| 2026-05-01 15:14 | 55.81025 | 89.81663 | 34801 ft | 425 kts | 261° |
| 2026-05-01 15:15 | 55.79995 | 89.73695 | 35235 ft | 425 kts | 261° |
| 2026-05-01 15:15 | 55.78985 | 89.65936 | 35716 ft | 423 kts | 261° |
| 2026-05-01 15:16 | 55.77916 | 89.57758 | 36057 ft | 425 kts | 261° |
| 2026-05-01 15:16 | 55.76599 | 89.47741 | 36059 ft | 425 kts | 261° |
| 2026-05-01 15:18 | 55.73569 | 89.24955 | 36064 ft | 424 kts | 260° |
| 2026-05-01 15:19 | 55.71535 | 89.09861 | 36068 ft | 424 kts | 260° |
| 2026-05-01 15:19 | 55.69911 | 88.97920 | 36070 ft | 424 kts | 260° |
| 2026-05-01 15:20 | 55.68397 | 88.86809 | 36073 ft | 424 kts | 260° |
| 2026-05-01 15:21 | 55.67242 | 88.78363 | 36074 ft | 424 kts | 260° |
| 2026-05-01 15:21 | 55.66233 | 88.71041 | 36074 ft | 424 kts | 260° |
| 2026-05-01 15:22 | 55.64655 | 88.59643 | 36074 ft | 423 kts | 260° |
| 2026-05-01 15:22 | 55.63551 | 88.51722 | 36074 ft | 422 kts | 260° |
| 2026-05-01 15:23 | 55.62468 | 88.44005 | 36074 ft | 421 kts | 260° |
| 2026-05-01 15:23 | 55.61441 | 88.36705 | 36074 ft | 421 kts | 260° |
| 2026-05-01 15:24 | 55.60484 | 88.29942 | 36074 ft | 421 kts | 259° |
| 2026-05-01 15:24 | 55.59477 | 88.22851 | 36074 ft | 422 kts | 259° |
| 2026-05-01 15:25 | 55.58441 | 88.15595 | 36074 ft | 421 kts | 259° |
| 2026-05-01 15:25 | 55.57320 | 88.07785 | 36074 ft | 421 kts | 259° |
| 2026-05-01 15:26 | 55.56210 | 88.00085 | 36067 ft | 421 kts | 259° |
| 2026-05-01 15:26 | 55.55185 | 87.93002 | 36059 ft | 421 kts | 259° |
| 2026-05-01 15:27 | 55.54050 | 87.85201 | 36050 ft | 421 kts | 259° |
| 2026-05-01 15:28 | 55.52343 | 87.73545 | 36047 ft | 422 kts | 258° |
| 2026-05-01 15:28 | 55.51194 | 87.65745 | 36047 ft | 422 kts | 258° |
| 2026-05-01 15:29 | 55.49494 | 87.54273 | 36047 ft | 423 kts | 258° |
| 2026-05-01 15:30 | 55.47115 | 87.38451 | 36047 ft | 425 kts | 258° |
| 2026-05-01 15:31 | 55.42971 | 87.11256 | 36047 ft | 426 kts | 257° |
| 2026-05-01 15:32 | 55.40719 | 86.96664 | 36047 ft | 426 kts | 257° |
| 2026-05-01 15:34 | 55.36155 | 86.67469 | 36047 ft | 426 kts | 257° |